Time;durP1;ratioP1;P1;durP2;ratioP2;P2;SDS_P1;SDS_P2;PMS_P1;PMS_P2;Temp;Humidity;BMP_temperature;BMP_pressure;BME280_temperature;BME280_humidity;BME280_pressure;Samples;Min_cycle;Max_cycle;Signal;HPM_P1;HPM_P2
2022/04/11 00:01:01;;;;;;;4.10;3.70;;;;;;;1.51;100.00;100674.22;4947950;28;20214;-58
2022/04/11 00:03:26;;;;;;;5.00;4.50;;;;;;;1.49;100.00;100672.44;4946781;28;20750;-59
2022/04/11 00:05:52;;;;;;;4.30;4.00;;;;;;;1.45;100.00;100681.63;4952271;28;20193;-57
2022/04/11 00:08:19;;;;;;;4.63;4.23;;;;;;;1.42;100.00;100673.91;4943486;28;20187;-59
2022/04/11 00:10:45;;;;;;;4.63;4.23;;;;;;;1.38;100.00;100669.50;4944311;28;20170;-58
2022/04/11 00:13:10;;;;;;;4.57;4.27;;;;;;;1.34;100.00;100660.88;4948769;28;20217;-58
2022/04/11 00:15:38;;;;;;;5.20;4.70;;;;;;;1.32;100.00;100659.06;4944465;28;20651;-58
2022/04/11 00:18:04;;;;;;;4.60;4.20;;;;;;;1.27;100.00;100658.94;4947679;28;20658;-59
2022/04/11 00:20:30;;;;;;;4.70;4.30;;;;;;;1.24;100.00;100647.75;4945531;28;20206;-58
2022/04/11 00:22:56;;;;;;;4.90;4.40;;;;;;;1.21;100.00;100651.09;4953469;28;20233;-58
2022/04/11 00:25:21;;;;;;;5.37;4.83;;;;;;;1.18;100.00;100651.81;4956186;28;20194;-58
2022/04/11 00:27:47;;;;;;;4.60;4.20;;;;;;;1.18;100.00;100646.72;4950687;28;20192;-58
2022/04/11 00:30:13;;;;;;;4.83;4.30;;;;;;;1.20;100.00;100652.75;4954665;28;20650;-58
2022/04/11 00:32:40;;;;;;;6.03;5.13;;;;;;;1.21;100.00;100644.28;4952210;28;20210;-58
2022/04/11 00:35:08;;;;;;;5.13;4.63;;;;;;;1.22;100.00;100642.59;4951024;28;20182;-58
2022/04/11 00:37:33;;;;;;;5.27;4.87;;;;;;;1.16;100.00;100630.50;4949135;28;20182;-57
2022/04/11 00:39:58;;;;;;;4.90;4.50;;;;;;;1.14;100.00;100631.28;4956003;28;20220;-59
2022/04/11 00:42:27;;;;;;;5.30;4.80;;;;;;;1.11;100.00;100633.72;4947906;28;20573;-57
2022/04/11 00:44:53;;;;;;;5.93;5.20;;;;;;;1.11;100.00;100633.72;4948029;28;20194;-58
2022/04/11 00:47:19;;;;;;;5.53;5.03;;;;;;;1.09;100.00;100626.00;4951851;28;20637;-58
2022/04/11 00:49:46;;;;;;;5.83;5.33;;;;;;;1.08;100.00;100628.50;4954460;28;20199;-59
2022/04/11 00:52:12;;;;;;;5.47;4.97;;;;;;;1.07;100.00;100635.28;4950527;29;20700;-58
2022/04/11 00:54:40;;;;;;;5.07;4.57;;;;;;;1.09;100.00;100637.88;4949094;28;20204;-57
2022/04/11 00:57:06;;;;;;;5.70;5.17;;;;;;;1.09;100.00;100637.88;4950771;28;20187;-57
2022/04/11 00:59:32;;;;;;;5.13;4.73;;;;;;;1.08;100.00;100634.47;4949716;28;20194;-58
2022/04/11 01:02:02;;;;;;;17.23;15.33;;;;;;;1.06;100.00;100633.53;4951433;28;20208;-57
2022/04/11 01:04:27;;;;;;;23.97;21.53;;;;;;;1.06;100.00;100631.00;4954049;28;20209;-58
2022/04/11 01:06:59;;;;;;;19.50;17.50;;;;;;;1.06;100.00;100633.53;4946610;28;20512;-57
2022/04/11 01:09:27;;;;;;;16.47;14.80;;;;;;;1.08;100.00;100626.81;4954787;28;20806;-59
2022/04/11 01:11:53;;;;;;;12.80;11.57;;;;;;;1.06;100.00;100621.66;4951514;28;20217;-57
2022/04/11 01:14:19;;;;;;;9.13;8.20;;;;;;;1.06;100.00;100619.09;4952051;28;20191;-58
2022/04/11 01:16:52;;;;;;;7.83;7.07;;;;;;;1.06;100.00;100621.66;4945251;28;20269;-59
2022/04/11 01:19:19;;;;;;;7.53;6.83;;;;;;;1.06;100.00;100616.56;4947260;28;20186;-58
2022/04/11 01:21:45;;;;;;;6.50;5.90;;;;;;;1.08;100.00;100615.75;4948734;28;20339;-58
2022/04/11 01:24:10;;;;;;;6.50;5.87;;;;;;;1.10;100.00;100604.81;4953843;28;20261;-59
2022/04/11 01:26:37;;;;;;;6.87;6.27;;;;;;;1.14;100.00;100603.22;4948093;29;20658;-58
2022/04/11 01:29:04;;;;;;;7.67;6.47;;;;;;;1.11;100.00;100596.34;4949657;28;20289;-57
2022/04/11 01:31:30;;;;;;;6.90;6.30;;;;;;;1.12;100.00;100599.75;4946521;28;20756;-58
2022/04/11 01:33:55;;;;;;;7.20;6.60;;;;;;;1.12;100.00;100599.75;4943534;28;20273;-57
2022/04/11 01:36:21;;;;;;;7.33;6.43;;;;;;;1.16;100.00;100599.06;4948480;28;20277;-59
2022/04/11 01:38:46;;;;;;;6.60;5.90;;;;;;;1.19;100.00;100597.47;4948847;28;20228;-58
2022/04/11 01:41:11;;;;;;;12.20;11.10;;;;;;;1.21;100.00;100589.88;4948256;29;20211;-58
2022/04/11 01:43:37;;;;;;;9.43;8.53;;;;;;;1.24;100.00;100589.97;4951247;28;20313;-58
2022/04/11 01:46:02;;;;;;;8.63;7.87;;;;;;;1.28;100.00;100584.16;4945157;29;20252;-57
2022/04/11 01:48:27;;;;;;;9.20;8.40;;;;;;;1.34;100.00;100591.16;4952206;28;20190;-58
2022/04/11 01:50:53;;;;;;;9.63;8.70;;;;;;;1.40;100.00;100576.06;4945287;28;20420;-57
2022/04/11 01:53:20;;;;;;;9.33;8.43;;;;;;;1.46;100.00;100572.84;4948798;28;20218;-57
2022/04/11 01:55:46;;;;;;;9.27;8.47;;;;;;;1.50;100.00;100573.00;4952190;28;20545;-58
2022/04/11 01:58:12;;;;;;;8.33;7.63;;;;;;;1.55;100.00;100572.28;4947611;28;20191;-57
2022/04/11 02:00:38;;;;;;;8.40;7.70;;;;;;;1.60;100.00;100565.63;4948050;28;20298;-58
2022/04/11 02:03:06;;;;;;;8.27;7.60;;;;;;;1.64;100.00;100558.16;4946228;28;20207;-57
2022/04/11 02:05:32;;;;;;;7.60;7.00;;;;;;;1.67;100.00;100555.66;4949408;28;20191;-57
2022/04/11 02:07:57;;;;;;;7.87;7.07;;;;;;;1.68;100.00;100549.75;4944580;28;20264;-58
2022/04/11 02:10:23;;;;;;;6.67;6.07;;;;;;;1.70;100.00;100557.47;4949448;28;20210;-58
2022/04/11 02:12:48;;;;;;;7.63;6.93;;;;;;;1.72;100.00;100544.75;4952491;28;21086;-57
2022/04/11 02:15:15;;;;;;;7.13;6.43;;;;;;;1.73;100.00;100542.25;4950126;29;20278;-58
2022/04/11 02:17:40;;;;;;;7.37;6.17;;;;;;;1.75;100.00;100534.66;4949234;28;20191;-59
2022/04/11 02:20:07;;;;;;;7.03;6.43;;;;;;;1.74;100.00;100530.34;4948728;28;20301;-58
2022/04/11 02:22:59;;;;;;;6.37;5.77;;;;;;;1.75;100.00;100529.53;4925469;29;20214;-58
2022/04/11 02:25:26;;;;;;;7.03;6.37;;;;;;;1.76;100.00;100534.69;4939361;28;20202;-58
2022/04/11 02:27:54;;;;;;;7.37;6.60;;;;;;;1.78;100.00;100527.94;4948404;28;20604;-57
2022/04/11 02:30:22;;;;;;;6.90;6.23;;;;;;;1.81;100.00;100522.09;4951848;28;20187;-59
2022/04/11 02:32:49;;;;;;;7.70;7.00;;;;;;;1.78;100.00;100529.63;4945907;28;20573;-59
2022/04/11 02:35:14;;;;;;;7.00;6.10;;;;;;;1.76;100.00;100521.06;4951908;28;20212;-58
2022/04/11 02:37:39;;;;;;;6.20;5.70;;;;;;;1.75;100.00;100515.06;4948123;28;20186;-58
2022/04/11 02:40:07;;;;;;;7.33;6.70;;;;;;;1.74;100.00;100507.38;4948410;28;20249;-57
2022/04/11 02:42:33;;;;;;;6.83;6.13;;;;;;;1.73;100.00;100501.44;4945763;28;20297;-58
2022/04/11 02:44:59;;;;;;;7.37;6.77;;;;;;;1.72;100.00;100506.47;4944158;28;20659;-58
2022/04/11 02:47:24;;;;;;;7.20;6.60;;;;;;;1.72;100.00;100503.91;4946060;28;20670;-57
2022/04/11 02:49:50;;;;;;;7.70;6.90;;;;;;;1.70;100.00;100503.88;4947477;28;20190;-58
2022/04/11 02:52:16;;;;;;;8.33;7.60;;;;;;;1.73;100.00;100504.00;4945986;28;20674;-58
2022/04/11 02:54:41;;;;;;;7.80;7.10;;;;;;;1.72;100.00;100502.25;4949318;28;20194;-58
2022/04/11 02:57:07;;;;;;;8.33;7.60;;;;;;;1.70;100.00;100501.34;4945231;28;20222;-57
2022/04/11 02:59:34;;;;;;;7.80;7.00;;;;;;;1.67;100.00;100499.53;4948173;28;20191;-58
2022/04/11 03:02:00;;;;;;;6.73;6.13;;;;;;;1.66;100.00;100495.25;4944785;28;20225;-57
2022/04/11 03:04:26;;;;;;;6.90;6.30;;;;;;;1.65;100.00;100480.78;4948002;28;20520;-59
2022/04/11 03:06:53;;;;;;;7.70;7.03;;;;;;;1.64;100.00;100485.81;4949999;28;20197;-58
2022/04/11 03:09:18;;;;;;;7.33;6.63;;;;;;;1.64;100.00;100480.72;4944799;28;20267;-58
2022/04/11 03:11:43;;;;;;;7.97;6.90;;;;;;;1.63;100.00;100479.00;4949874;28;20684;-58
2022/04/11 03:14:09;;;;;;;7.93;7.13;;;;;;;1.62;100.00;100479.81;4952866;28;20199;-57
2022/04/11 03:16:34;;;;;;;8.33;7.63;;;;;;;1.61;100.00;100483.19;4943825;28;20313;-58
2022/04/11 03:19:00;;;;;;;10.20;9.30;;;;;;;1.56;100.00;100488.13;4943719;28;20647;-57
2022/04/11 03:21:25;;;;;;;9.47;8.70;;;;;;;1.54;100.00;100491.47;4948870;28;21120;-58
2022/04/11 03:23:50;;;;;;;9.00;8.20;;;;;;;1.51;100.00;100474.41;4949889;28;20234;-57
2022/04/11 03:26:16;;;;;;;8.00;7.30;;;;;;;1.49;100.00;100470.94;4947393;28;20195;-58
2022/04/11 03:28:41;;;;;;;8.00;7.30;;;;;;;1.46;100.00;100468.28;4949089;28;20801;-59
2022/04/11 03:31:06;;;;;;;7.53;6.83;;;;;;;1.44;100.00;100472.47;4944989;28;20195;-57
2022/04/11 03:33:32;;;;;;;7.20;6.60;;;;;;;1.41;100.00;100469.81;4948477;28;20249;-58
2022/04/11 03:35:57;;;;;;;7.13;6.50;;;;;;;1.39;100.00;100469.78;4947932;28;20214;-58
2022/04/11 03:38:23;;;;;;;7.30;6.70;;;;;;;1.34;100.00;100464.53;4949880;28;20695;-57
2022/04/11 03:40:48;;;;;;;7.30;6.60;;;;;;;1.29;100.00;100467.72;4946920;28;20211;-57
2022/04/11 03:43:13;;;;;;;7.40;6.70;;;;;;;1.24;100.00;100465.03;4946753;28;21588;-57
2022/04/11 03:45:39;;;;;;;7.50;6.80;;;;;;;1.19;100.00;100477.66;4944730;28;20723;-58
2022/04/11 03:48:05;;;;;;;8.20;7.50;;;;;;;1.16;100.00;100479.25;4949956;28;20569;-56
2022/04/11 03:50:30;;;;;;;7.47;6.73;;;;;;;1.10;100.00;100485.00;4946029;28;20192;-57
2022/04/11 03:52:55;;;;;;;8.13;7.33;;;;;;;1.02;100.00;100484.75;4948908;28;20214;-58
2022/04/11 03:55:21;;;;;;;7.23;6.63;;;;;;;0.94;100.00;100478.53;4949603;28;20961;-56
2022/04/11 03:57:46;;;;;;;7.47;6.87;;;;;;;0.87;100.00;100481.69;4947494;28;20198;-57
2022/04/11 04:00:12;;;;;;;6.80;6.23;;;;;;;0.80;100.00;100478.06;4953176;28;20544;-57
2022/04/11 04:02:38;;;;;;;7.40;6.70;;;;;;;0.75;100.00;100471.94;4944390;28;20281;-58
2022/04/11 04:05:03;;;;;;;7.87;7.13;;;;;;;0.70;100.00;100468.38;4951419;28;20194;-57
2022/04/11 04:07:29;;;;;;;6.90;6.27;;;;;;;0.67;100.00;100473.38;4945112;28;20183;-57
2022/04/11 04:09:54;;;;;;;7.90;7.20;;;;;;;0.63;100.00;100477.47;4953553;28;20523;-57
2022/04/11 04:12:20;;;;;;;7.53;6.83;;;;;;;0.59;100.00;100471.41;4948401;29;20202;-57
2022/04/11 04:14:47;;;;;;;7.57;6.83;;;;;;;0.57;100.00;100473.03;4949791;28;20238;-57
2022/04/11 04:17:12;;;;;;;7.20;6.60;;;;;;;0.54;100.00;100472.94;4947294;28;20191;-57
2022/04/11 04:19:37;;;;;;;7.90;7.10;;;;;;;0.52;100.00;100469.50;4954108;28;20194;-57
2022/04/11 04:22:03;;;;;;;8.17;7.37;;;;;;;0.50;100.00;100476.22;4950763;28;21140;-57
2022/04/11 04:24:30;;;;;;;8.07;7.37;;;;;;;0.47;100.00;100473.53;4944656;28;20207;-58
2022/04/11 04:26:56;;;;;;;8.27;7.57;;;;;;;0.45;100.00;100473.47;4950045;28;20194;-59
2022/04/11 04:29:21;;;;;;;9.93;7.73;;;;;;;0.44;100.00;100470.88;4944938;28;20206;-57
2022/04/11 04:31:47;;;;;;;9.17;8.27;;;;;;;0.41;100.00;100473.31;4952233;28;20191;-58
2022/04/11 04:34:13;;;;;;;8.70;7.77;;;;;;;0.34;100.00;100466.28;4949385;28;20256;-57
2022/04/11 04:36:39;;;;;;;8.30;7.53;;;;;;;0.30;100.00;100466.19;4955978;28;21064;-57
2022/04/11 04:39:04;;;;;;;8.03;7.37;;;;;;;0.27;100.00;100455.03;4949064;28;20333;-58
2022/04/11 04:41:30;;;;;;;8.43;7.63;;;;;;;0.24;100.00;100457.44;4942599;28;20579;-57
2022/04/11 04:43:55;;;;;;;8.40;7.40;;;;;;;0.21;100.00;100450.59;4950750;28;20199;-57
2022/04/11 04:46:21;;;;;;;8.33;7.53;;;;;;;0.20;100.00;100447.97;4948395;28;20199;-57
2022/04/11 04:48:46;;;;;;;8.97;8.20;;;;;;;0.17;100.00;100450.41;4945399;28;20566;-57
2022/04/11 04:51:12;;;;;;;8.63;7.83;;;;;;;0.18;100.00;100444.50;4947081;28;20175;-56
2022/04/11 04:53:37;;;;;;;7.90;7.20;;;;;;;0.18;100.00;100450.47;4946545;28;20211;-57
2022/04/11 04:56:03;;;;;;;8.50;7.70;;;;;;;0.20;100.00;100447.97;4942711;28;20206;-57
2022/04/11 04:58:28;;;;;;;8.63;7.83;;;;;;;0.22;100.00;100439.59;4938238;28;20299;-56
2022/04/11 05:00:53;;;;;;;8.60;7.87;;;;;;;0.22;100.00;100454.88;4938033;28;21090;-57
2022/04/11 05:03:19;;;;;;;8.87;7.97;;;;;;;0.21;100.00;100440.41;4943094;28;20241;-57
2022/04/11 05:05:44;;;;;;;8.03;7.17;;;;;;;0.21;100.00;100448.03;4942640;28;20186;-57
2022/04/11 05:08:10;;;;;;;7.77;6.97;;;;;;;0.23;100.00;100448.09;4946576;28;20233;-57
2022/04/11 05:10:35;;;;;;;7.00;6.47;;;;;;;0.25;100.00;100449.00;4945752;28;20200;-57
2022/04/11 05:13:00;;;;;;;8.17;7.50;;;;;;;0.35;100.00;100458.69;4948249;28;20654;-57
2022/04/11 05:15:26;;;;;;;7.17;6.57;;;;;;;0.53;100.00;100444.88;4943534;28;20252;-56
2022/04/11 05:17:53;;;;;;;7.60;6.90;;;;;;;0.68;100.00;100452.19;4950539;28;20538;-57
2022/04/11 05:20:18;;;;;;;7.83;7.10;;;;;;;0.75;100.00;100442.25;4949877;28;20201;-59
2022/04/11 05:22:43;;;;;;;8.00;7.30;;;;;;;0.83;100.00;100446.72;4945578;28;20250;-58
2022/04/11 05:25:09;;;;;;;7.77;7.07;;;;;;;1.02;100.00;100448.19;4954181;28;20193;-58
2022/04/11 05:27:34;;;;;;;7.37;6.77;;;;;;;1.29;100.00;100439.69;4953572;28;20187;-57
2022/04/11 05:30:00;;;;;;;7.20;6.50;;;;;;;1.54;100.00;100438.75;4957864;28;20662;-57
2022/04/11 05:32:25;;;;;;;7.20;6.57;;;;;;;1.77;100.00;100443.69;4956924;28;20293;-58
2022/04/11 05:34:50;;;;;;;7.30;6.67;;;;;;;2.02;100.00;100450.38;4969418;28;20553;-58
2022/04/11 05:37:16;;;;;;;6.63;5.93;;;;;;;2.43;100.00;100452.31;4952085;28;20186;-58
2022/04/11 05:39:41;;;;;;;6.50;5.90;;;;;;;2.90;100.00;100450.13;4955016;28;20347;-59
2022/04/11 05:42:07;;;;;;;7.40;5.93;;;;;;;3.36;100.00;100446.97;4951191;28;20616;-58
2022/04/11 05:44:33;;;;;;;7.23;6.00;;;;;;;3.63;100.00;100453.56;4952947;28;20266;-58
2022/04/11 05:46:58;;;;;;;9.23;5.73;;;;;;;3.85;100.00;100454.00;4950766;28;20734;-58
2022/04/11 05:49:24;;;;;;;6.70;5.97;;;;;;;4.16;100.00;100447.78;4947729;28;20240;-58
2022/04/11 05:51:50;;;;;;;6.53;5.93;;;;;;;4.55;100.00;100448.53;4953236;28;20257;-59
2022/04/11 05:54:16;;;;;;;7.43;5.90;;;;;;;5.18;100.00;100444.47;4953000;28;20194;-59
2022/04/11 05:56:42;;;;;;;6.47;5.83;;;;;;;5.49;100.00;100444.06;4951399;28;20195;-56
2022/04/11 05:59:08;;;;;;;5.57;5.07;;;;;;;5.75;99.80;100449.56;4944551;28;20250;-57
2022/04/11 06:01:37;;;;;;;5.70;5.17;;;;;;;6.23;98.28;100455.31;4948900;28;20209;-58
2022/04/11 06:04:03;;;;;;;5.90;5.30;;;;;;;6.64;96.48;100453.19;4952669;28;20268;-59
2022/04/11 06:06:29;;;;;;;7.07;4.90;;;;;;;6.89;95.63;100453.41;4950314;28;20224;-57
2022/04/11 06:08:54;;;;;;;4.87;4.47;;;;;;;6.96;94.18;100448.34;4952009;28;22275;-58
2022/04/11 06:11:19;;;;;;;5.53;5.03;;;;;;;7.17;93.98;100454.53;4950145;28;20266;-57
2022/04/11 06:13:45;;;;;;;15.30;10.70;;;;;;;7.57;93.12;100452.22;4937091;28;20613;-58
2022/04/11 06:16:11;;;;;;;15.40;10.93;;;;;;;8.02;91.94;100451.56;4962762;28;20194;-58
2022/04/11 06:18:37;;;;;;;9.30;7.17;;;;;;;8.77;89.85;100448.34;4948236;28;20243;-58
2022/04/11 06:21:02;;;;;;;7.10;6.40;;;;;;;9.64;87.32;100448.28;4945838;28;20879;-57
2022/04/11 06:23:27;;;;;;;6.57;5.70;;;;;;;10.29;84.77;100440.28;4936624;28;20261;-58
2022/04/11 06:25:53;;;;;;;7.43;6.00;;;;;;;10.79;82.83;100440.84;4954934;28;20193;-58
2022/04/11 06:28:18;;;;;;;10.07;6.83;;;;;;;11.33;81.63;100439.56;4965894;28;20268;-58
2022/04/11 06:30:44;;;;;;;11.83;8.40;;;;;;;11.83;80.56;100444.19;4956528;28;20268;-58
2022/04/11 06:33:09;;;;;;;10.50;7.00;;;;;;;12.12;79.66;100449.06;4944665;28;20849;-57
2022/04/11 06:35:34;;;;;;;11.17;7.30;;;;;;;12.38;78.95;100447.88;4948758;28;20198;-56
2022/04/11 06:38:00;;;;;;;5.63;5.07;;;;;;;12.71;78.51;100440.47;4952521;28;20542;-57
2022/04/11 06:40:27;;;;;;;7.27;5.00;;;;;;;12.96;77.50;100435.75;4948530;28;20794;-58
2022/04/11 06:42:52;;;;;;;5.27;4.30;;;;;;;13.19;76.81;100431.88;4953177;28;20301;-56
2022/04/11 06:45:17;;;;;;;4.97;4.20;;;;;;;13.41;76.29;100426.34;4947881;29;20281;-57
2022/04/11 06:47:44;;;;;;;4.23;3.83;;;;;;;13.53;75.06;100425.25;4954004;28;20195;-57
2022/04/11 06:50:10;;;;;;;5.87;3.87;;;;;;;13.71;75.02;100426.66;4947572;28;20241;-58
2022/04/11 06:52:36;;;;;;;4.50;3.70;;;;;;;13.73;73.96;100419.66;4952708;28;20294;-57
2022/04/11 06:55:01;;;;;;;3.67;3.37;;;;;;;13.83;73.75;100417.75;4949150;28;20201;-59
2022/04/11 06:57:26;;;;;;;4.13;3.73;;;;;;;13.96;73.60;100424.41;4943768;28;20715;-57
2022/04/11 06:59:52;;;;;;;5.83;3.93;;;;;;;14.02;73.51;100432.06;4945115;28;20200;-57
2022/04/11 07:02:17;;;;;;;29.13;17.53;;;;;;;13.96;72.98;100423.53;4946170;28;20218;-57
2022/04/11 07:04:43;;;;;;;19.30;12.93;;;;;;;13.95;73.63;100420.09;4944163;28;20266;-57
2022/04/11 07:07:08;;;;;;;12.47;9.63;;;;;;;13.97;73.57;100420.91;4942050;28;20257;-58
2022/04/11 07:09:33;;;;;;;8.80;7.03;;;;;;;13.96;73.11;100426.13;4941140;28;20268;-57
2022/04/11 07:11:59;;;;;;;17.73;14.90;;;;;;;13.94;73.52;100428.78;4937385;28;20210;-58
2022/04/11 07:14:25;;;;;;;12.33;10.77;;;;;;;13.87;74.17;100428.06;4946982;28;20290;-57
2022/04/11 07:16:52;;;;;;;6.63;5.97;;;;;;;13.77;74.02;100417.84;4943965;28;20206;-57
2022/04/11 07:19:18;;;;;;;5.60;5.00;;;;;;;13.58;74.16;100418.22;4946424;28;20195;-57
2022/04/11 07:21:46;;;;;;;4.37;3.97;;;;;;;13.41;74.11;100422.00;4944625;28;20225;-57
2022/04/11 07:24:11;;;;;;;4.00;3.60;;;;;;;13.27;74.47;100422.22;4941452;28;20219;-57
2022/04/11 07:26:36;;;;;;;3.87;3.30;;;;;;;13.13;74.49;100420.75;4945733;28;20192;-57
2022/04/11 07:29:02;;;;;;;4.10;3.03;;;;;;;12.99;74.58;100416.66;4942796;28;20194;-58
2022/04/11 07:31:27;;;;;;;3.20;2.77;;;;;;;12.80;73.83;100426.47;4943030;28;20211;-57
2022/04/11 07:33:53;;;;;;;3.03;2.67;;;;;;;12.64;71.69;100438.81;4944376;28;20638;-58
2022/04/11 07:36:18;;;;;;;3.00;2.70;;;;;;;12.37;72.69;100433.16;4942420;28;20320;-57
2022/04/11 07:38:44;;;;;;;2.90;2.53;;;;;;;12.25;73.77;100436.78;4943339;28;20209;-57
2022/04/11 07:41:09;;;;;;;4.53;3.87;;;;;;;12.09;75.02;100441.31;4945743;28;20619;-58
2022/04/11 07:43:35;;;;;;;4.83;3.50;;;;;;;12.01;76.49;100445.75;4942437;28;20585;-58
2022/04/11 07:46:01;;;;;;;3.60;3.30;;;;;;;11.94;77.54;100444.94;4938916;28;20631;-58
2022/04/11 07:48:27;;;;;;;4.37;3.07;;;;;;;11.83;78.22;100447.66;4941668;28;20186;-58
2022/04/11 07:50:52;;;;;;;4.30;3.30;;;;;;;11.71;78.63;100451.25;4942094;28;20250;-57
2022/04/11 07:53:18;;;;;;;3.80;2.67;;;;;;;11.66;78.67;100439.22;4944152;28;20293;-57
2022/04/11 07:55:44;;;;;;;3.77;3.10;;;;;;;11.64;77.65;100440.97;4948585;28;20599;-57
2022/04/11 07:58:09;;;;;;;3.90;3.20;;;;;;;11.59;78.60;100448.78;4941937;28;20187;-58
2022/04/11 08:00:35;;;;;;;2.60;2.40;;;;;;;11.62;79.08;100440.13;4940422;28;20231;-57
2022/04/11 08:03:00;;;;;;;3.67;2.70;;;;;;;11.63;77.49;100441.84;4942794;28;20292;-58
2022/04/11 08:05:26;;;;;;;3.47;2.70;;;;;;;11.56;78.41;100436.75;4945026;28;20188;-58
2022/04/11 08:07:52;;;;;;;3.17;2.63;;;;;;;11.54;78.52;100441.06;4942364;28;20736;-58
2022/04/11 08:10:18;;;;;;;2.53;2.30;;;;;;;11.47;78.59;100434.22;4946398;28;20194;-58
2022/04/11 08:13:02;;;;;;;3.80;2.70;;;;;;;11.39;76.71;100436.03;4937301;28;20221;-59
2022/04/11 08:15:29;;;;;;;2.47;2.27;;;;;;;11.29;77.57;100430.09;4941579;28;20199;-58
2022/04/11 08:17:55;;;;;;;2.50;2.30;;;;;;;11.22;78.14;100429.28;4952045;28;20677;-59
2022/04/11 08:20:21;;;;;;;2.50;1.90;;;;;;;11.21;78.46;100424.97;4949456;28;20265;-58
2022/04/11 08:22:47;;;;;;;3.13;2.03;;;;;;;11.25;78.23;100424.09;4943278;28;20594;-59
2022/04/11 08:25:14;;;;;;;2.37;1.93;;;;;;;11.25;78.43;100415.44;4937906;28;20186;-59
2022/04/11 08:27:40;;;;;;;3.10;2.20;;;;;;;11.26;79.00;100418.03;4938583;28;20237;-59
2022/04/11 08:30:06;;;;;;;3.40;1.97;;;;;;;11.29;79.18;100415.38;4941246;28;20183;-58
2022/04/11 08:32:43;;;;;;;2.83;2.30;;;;;;;11.37;77.84;100407.53;4940749;28;20217;-59
2022/04/11 08:35:09;;;;;;;3.10;2.30;;;;;;;11.40;76.33;100401.50;4937560;28;20202;-58
2022/04/11 08:37:40;;;;;;;3.37;2.20;;;;;;;11.40;76.20;100397.16;4941996;28;20258;-60
2022/04/11 08:40:10;;;;;;;2.43;1.93;;;;;;;11.42;74.76;100398.00;4944109;28;20242;-59
2022/04/11 08:42:37;;;;;;;3.27;2.10;;;;;;;11.40;74.00;100384.19;4946605;28;20231;-59
2022/04/11 08:45:03;;;;;;;2.10;1.90;;;;;;;11.49;73.12;100395.34;4947389;28;20241;-58
2022/04/11 08:47:28;;;;;;;2.23;1.87;;;;;;;11.50;72.70;100399.63;4948343;28;20644;-59
2022/04/11 08:49:54;;;;;;;2.63;2.00;;;;;;;11.53;72.57;100402.19;4950890;28;20192;-60
2022/04/11 08:52:20;;;;;;;1.70;1.60;;;;;;;11.55;72.37;100401.31;4951941;28;20203;-59
2022/04/11 08:54:46;;;;;;;1.97;1.57;;;;;;;11.62;71.92;100391.75;4951070;28;20194;-59
2022/04/11 08:57:11;;;;;;;2.43;1.90;;;;;;;11.72;70.88;100392.50;4956551;28;20197;-60
2022/04/11 08:59:37;;;;;;;1.73;1.60;;;;;;;11.78;71.13;100392.41;4949197;28;20187;-59
2022/04/11 09:02:08;;;;;;;1.93;1.70;;;;;;;11.78;69.62;100382.03;4944999;28;20315;-59
2022/04/11 09:04:56;;;;;;;1.80;1.53;;;;;;;11.80;69.54;100382.88;4943831;28;20195;-59
2022/04/11 09:07:22;;;;;;;3.00;1.70;;;;;;;11.88;69.73;100383.63;4948911;28;20857;-59
2022/04/11 09:09:48;;;;;;;3.43;2.07;;;;;;;12.04;70.28;100379.13;4946800;28;20210;-60
2022/04/11 09:12:15;;;;;;;3.67;1.90;;;;;;;12.14;69.77;100363.44;4948366;28;20663;-59
2022/04/11 09:14:41;;;;;;;2.37;1.60;;;;;;;12.16;69.08;100365.16;4949364;28;20186;-59
2022/04/11 09:17:09;;;;;;;1.80;1.50;;;;;;;12.22;68.35;100365.91;4947847;28;20195;-59
2022/04/11 09:19:35;;;;;;;1.90;1.50;;;;;;;12.25;67.93;100356.34;4955972;28;20193;-58
2022/04/11 09:22:00;;;;;;;2.03;1.50;;;;;;;12.44;68.58;100356.06;4943985;28;20222;-59
2022/04/11 09:24:26;;;;;;;2.40;1.80;;;;;;;12.45;67.10;100350.88;4947782;28;20188;-59
2022/04/11 09:26:55;;;;;;;1.77;1.47;;;;;;;12.51;66.73;100352.50;4948623;28;20198;-58
2022/04/11 09:29:26;;;;;;;1.83;1.43;;;;;;;12.63;66.68;100352.31;4944291;28;20601;-58
2022/04/11 09:31:52;;;;;;;2.03;1.50;;;;;;;12.81;66.70;100342.50;4942080;28;20265;-58
2022/04/11 09:34:23;;;;;;;2.37;1.70;;;;;;;12.95;65.75;100342.25;4953164;28;20658;-60
2022/04/11 09:36:48;;;;;;;2.70;1.50;;;;;;;12.99;65.16;100341.31;4942382;28;20191;-59
2022/04/11 09:39:14;;;;;;;1.70;1.23;;;;;;;13.10;64.70;100336.75;4941143;28;20201;-59
2022/04/11 09:41:45;;;;;;;1.27;1.10;;;;;;;13.23;64.86;100334.81;4943493;28;20206;-58
2022/04/11 09:44:26;;;;;;;1.33;1.10;;;;;;;13.37;63.64;100339.75;4947068;28;20195;-58
2022/04/11 09:47:02;;;;;;;1.30;0.97;;;;;;;13.47;62.64;100332.63;4952400;28;20219;-58
2022/04/11 09:49:28;;;;;;;1.73;1.13;;;;;;;13.62;61.57;100341.88;4949917;28;20615;-59
2022/04/11 09:52:06;;;;;;;4.83;1.83;;;;;;;13.79;62.07;100335.44;4948578;28;20213;-59
2022/04/11 09:54:33;;;;;;;2.63;1.53;;;;;;;13.62;59.81;100336.66;4948471;28;20228;-58
2022/04/11 09:56:59;;;;;;;2.23;1.10;;;;;;;13.60;60.23;100333.22;4946061;28;20196;-59
2022/04/11 09:59:26;;;;;;;1.43;0.90;;;;;;;13.81;59.56;100325.88;4948042;28;20227;-58
2022/04/11 10:01:53;;;;;;;1.40;1.10;;;;;;;13.86;58.95;100317.06;4941760;28;20229;-58
2022/04/11 10:04:19;;;;;;;2.03;1.50;;;;;;;14.09;59.48;100323.50;4946581;28;20192;-58
2022/04/11 10:06:45;;;;;;;2.77;1.10;;;;;;;14.13;60.54;100313.88;4945929;28;20945;-58
2022/04/11 10:09:12;;;;;;;7.13;2.17;;;;;;;14.02;59.81;100311.53;4945807;28;20548;-59
2022/04/11 10:11:38;;;;;;;1.90;1.43;;;;;;;13.95;59.71;100305.63;4945886;28;20195;-58
2022/04/11 10:14:05;;;;;;;2.93;1.37;;;;;;;13.97;59.24;100305.56;4928306;28;20187;-57
2022/04/11 10:16:31;;;;;;;1.73;1.17;;;;;;;14.19;57.61;100305.91;4952075;28;20657;-59
2022/04/11 10:19:03;;;;;;;1.83;1.13;;;;;;;14.32;58.22;100304.72;4948465;28;20203;-60
2022/04/11 10:21:30;;;;;;;1.50;1.10;;;;;;;14.21;59.49;100298.94;4945803;28;20347;-59
2022/04/11 10:24:01;;;;;;;1.80;1.23;;;;;;;14.42;59.75;100304.53;4941281;28;20279;-58
2022/04/11 10:26:42;;;;;;;1.90;1.00;;;;;;;14.51;59.79;100290.44;4945429;28;20181;-59
2022/04/11 10:29:34;;;;;;;1.80;1.20;;;;;;;14.53;60.75;100291.22;4944207;28;20229;-58
2022/04/11 10:32:14;;;;;;;2.17;1.33;;;;;;;14.35;58.94;100288.19;4941103;28;20211;-59
2022/04/11 10:35:04;;;;;;;2.83;1.20;;;;;;;14.41;59.52;100285.44;4941182;28;20197;-58
2022/04/11 10:37:41;;;;;;;1.87;1.20;;;;;;;14.56;59.89;100286.81;4947830;28;20195;-59
2022/04/11 10:40:15;;;;;;;2.27;1.17;;;;;;;14.46;58.59;100287.91;4945170;28;20233;-58
2022/04/11 10:43:01;;;;;;;1.97;1.30;;;;;;;14.35;58.40;100274.31;4941908;28;20576;-58
2022/04/11 10:45:34;;;;;;;3.53;1.30;;;;;;;14.46;57.91;100273.16;4940677;28;20203;-58
2022/04/11 10:48:00;;;;;;;2.20;1.00;;;;;;;14.62;56.27;100268.41;4948114;28;20190;-59
2022/04/11 10:50:33;;;;;;;1.83;1.10;;;;;;;14.48;57.24;100263.56;4947669;28;20269;-59
2022/04/11 10:53:25;;;;;;;1.10;1.00;;;;;;;14.62;58.05;100249.31;4946927;28;20206;-58
2022/04/11 10:56:00;;;;;;;1.53;1.00;;;;;;;14.79;57.42;100246.28;4943609;28;20275;-58
2022/04/11 10:58:44;;;;;;;1.90;1.00;;;;;;;14.58;56.05;100232.06;4941744;28;20212;-58
2022/04/11 11:01:10;;;;;;;3.47;1.30;;;;;;;14.79;56.45;100233.25;4944242;28;20256;-59
2022/04/11 11:03:39;;;;;;;2.17;1.10;;;;;;;14.94;57.25;100240.66;4948792;28;20210;-58
2022/04/11 11:06:17;;;;;;;2.60;1.33;;;;;;;15.06;58.50;100236.88;4947219;28;20189;-58
2022/04/11 11:08:43;;;;;;;1.30;1.20;;;;;;;14.97;57.58;100234.53;4941191;28;20190;-58
2022/04/11 11:11:27;;;;;;;2.00;1.17;;;;;;;14.99;57.71;100237.06;4948162;28;20202;-58
2022/04/11 11:13:56;;;;;;;2.40;1.57;;;;;;;14.94;57.18;100232.00;4942654;28;20198;-58
2022/04/11 11:16:21;;;;;;;2.80;1.20;;;;;;;15.18;56.46;100233.06;4945114;28;20690;-59
2022/04/11 11:18:46;;;;;;;1.70;1.10;;;;;;;15.27;56.88;100231.06;4946948;28;20190;-58
2022/04/11 11:21:21;;;;;;;1.63;0.93;;;;;;;15.39;57.71;100217.66;4944386;28;20698;-58
2022/04/11 11:24:04;;;;;;;3.00;1.00;;;;;;;15.43;57.44;100214.06;4951368;28;20289;-59